首页
METAR-TAF:

METAR-TAF

机场 :

格倫興, 瑞士

纬度: 47-10-53N, 经度: 007-24-59E, 海拔: 430米

当前天气观测

该预报发布于22分钟前的19:20 UTC
风速4节,风向南转西南
温度 4°C
湿度 70%
气压 1029 hPa
能见度10公里或以上
1500米以下无云,无积雨云

METAR: LSZG 181920Z AUTO 21004KT CAVOK 04/M01 Q1029

时间: 20:42 (19:42 UTC)

预报

该预报发布于5小时和17分钟前的14:25 UTC
预报有效从18日的 15点(UTC)到 18日的 24点(UTC)
风速10节,风向西转西南
能见度10公里或以上
散云层高于5000英尺

TAF: LSZG 181425Z 1815/1824 24010KT 9999 SCT050

超过4000个机场的气象观测和天气预报(METAR&TAF报告)。

可查询的气象台以黄色和红色小点在地图上表示。

将鼠标移到小点上方,可查看气象台名称。

然后点击查看天气观测和预报。

如需切换地图:点击带黑十字的绿色按钮放大地图;点击带横线的绿色按钮缩小地图;或者点击绿色箭头查看邻近地区的地图。


METAR-TAF: